Time;durP1;ratioP1;P1;durP2;ratioP2;P2;SDS_P1;SDS_P2;PMS_P1;PMS_P2;Temp;Humidity;BMP_temperature;BMP_pressure;BME280_temperature;BME280_humidity;BME280_pressure;Samples;Min_cycle;Max_cycle;Signal;HPM_P1;HPM_P2
2022/08/08 00:00:10;;;;;;;6.40;4.18;;;;;;;11.19;100.00;93522.38;2110304;28;20068;-72
2022/08/08 00:01:27;;;;;;;5.10;4.20;;;;;;;11.13;100.00;93523.25;2110412;28;20023;-70
2022/08/08 00:02:46;;;;;;;4.97;3.90;;;;;;;11.10;100.00;93520.22;2114319;27;20038;-73
2022/08/08 00:04:10;;;;;;;4.40;4.10;;;;;;;11.15;100.00;93523.59;2111633;28;20176;-70
2022/08/08 00:05:39;;;;;;;4.00;3.70;;;;;;;11.10;100.00;93525.56;2110237;28;20378;-71
2022/08/08 00:06:53;;;;;;;4.93;3.80;;;;;;;11.12;100.00;93519.06;2110169;28;20362;-69
2022/08/08 00:08:29;;;;;;;4.47;4.00;;;;;;;10.97;100.00;93518.53;2110385;28;20027;-70
2022/08/08 00:09:37;;;;;;;6.78;4.43;;;;;;;10.97;100.00;93521.22;2113458;28;20106;-70
2022/08/08 00:11:05;;;;;;;4.80;4.30;;;;;;;11.00;100.00;93517.75;2110367;28;20458;-70
2022/08/08 00:12:11;;;;;;;4.80;4.00;;;;;;;10.87;100.00;93530.19;2112681;27;20047;-70
2022/08/08 00:13:27;;;;;;;5.85;4.95;;;;;;;10.92;100.00;93527.03;2110374;28;20036;-73
2022/08/08 00:14:51;;;;;;;5.65;4.60;;;;;;;10.84;100.00;93519.16;2120775;27;20544;-70
2022/08/08 00:16:12;;;;;;;4.20;3.90;;;;;;;10.81;100.00;93532.56;2127264;27;20025;-70
2022/08/08 00:17:22;;;;;;;4.53;4.10;;;;;;;10.75;100.00;93523.47;2127696;27;20383;-70
2022/08/08 00:18:35;;;;;;;4.63;3.55;;;;;;;10.71;100.00;93536.94;2134055;27;20520;-70
2022/08/08 00:19:59;;;;;;;4.40;4.10;;;;;;;10.73;100.00;93531.91;2127086;27;20113;-70
2022/08/08 00:21:01;;;;;;;4.43;4.03;;;;;;;10.75;100.00;93518.88;2127197;27;20035;-70
2022/08/08 00:22:11;;;;;;;4.18;3.80;;;;;;;10.87;100.00;93536.28;2127119;27;20023;-71
2022/08/08 00:23:25;;;;;;;4.80;4.15;;;;;;;10.85;100.00;93530.59;2132390;27;20034;-72
2022/08/08 00:24:35;;;;;;;4.97;3.90;;;;;;;10.82;100.00;93534.06;2127147;27;20031;-72
2022/08/08 00:25:43;;;;;;;4.50;4.13;;;;;;;10.84;100.00;93526.41;2127183;27;20027;-72
2022/08/08 00:26:49;;;;;;;5.03;4.03;;;;;;;10.87;100.00;93535.53;2127141;27;20444;-70
2022/08/08 00:27:53;;;;;;;4.35;4.00;;;;;;;10.70;100.00;93540.00;2127026;27;20764;-70
2022/08/08 00:29:11;;;;;;;4.50;4.20;;;;;;;10.61;100.00;93534.41;2127848;27;20022;-70
2022/08/08 00:30:13;;;;;;;5.80;3.80;;;;;;;10.51;100.00;93525.38;2127160;27;20076;-72
2022/08/08 00:31:27;;;;;;;4.20;3.90;;;;;;;10.50;100.00;93529.22;2127192;27;20025;-70
2022/08/08 00:33:13;;;;;;;4.47;4.00;;;;;;;10.56;100.00;93531.03;2125795;27;20517;-70
2022/08/08 00:36:30;;;;;;;5.65;3.92;;;;;;;10.44;100.00;93530.81;2127047;27;20022;-70
2022/08/08 00:37:42;;;;;;;4.05;3.75;;;;;;;10.41;100.00;93532.41;2127111;27;20031;-71
2022/08/08 00:38:59;;;;;;;4.85;4.18;;;;;;;10.48;100.00;93526.94;2127045;27;20026;-71
2022/08/08 00:40:19;;;;;;;4.40;4.00;;;;;;;10.49;100.00;93536.50;2127001;27;20041;-70
2022/08/08 00:41:29;;;;;;;5.15;4.22;;;;;;;10.45;100.00;93529.69;2127138;27;20484;-70
2022/08/08 00:42:36;;;;;;;4.15;3.85;;;;;;;10.37;100.00;93531.69;2130181;27;20031;-70
2022/08/08 00:44:02;;;;;;;4.00;3.70;;;;;;;10.43;100.00;93530.06;2126873;27;20467;-70
2022/08/08 00:45:27;;;;;;;4.07;3.78;;;;;;;10.45;100.00;93535.03;2133074;27;20040;-70
2022/08/08 00:47:07;;;;;;;3.83;3.53;;;;;;;10.43;100.00;93524.72;2125601;27;20023;-70
2022/08/08 00:48:22;;;;;;;4.25;3.95;;;;;;;10.32;100.00;93526.81;2123904;27;20035;-71
2022/08/08 00:49:45;;;;;;;4.65;3.10;;;;;;;10.36;100.00;93524.84;2129177;27;20126;-71
2022/08/08 00:51:23;;;;;;;4.30;3.90;;;;;;;10.37;100.00;93521.00;2126052;27;20027;-74
2022/08/08 00:52:26;;;;;;;5.47;3.90;;;;;;;10.40;100.00;93522.09;2127009;27;20455;-70
2022/08/08 00:53:45;;;;;;;5.80;3.67;;;;;;;10.37;100.00;93528.28;2125388;27;20055;-70
2022/08/08 00:55:19;;;;;;;3.92;3.63;;;;;;;10.29;100.00;93522.28;2116625;28;20099;-70
2022/08/08 00:56:41;;;;;;;3.70;3.40;;;;;;;10.11;100.00;93525.16;2121261;27;20480;-70
2022/08/08 00:58:23;;;;;;;3.78;3.47;;;;;;;10.06;100.00;93521.03;2126866;27;20023;-70
2022/08/08 01:00:06;;;;;;;3.78;3.47;;;;;;;10.15;100.00;93525.13;2127017;27;20092;-70
2022/08/08 01:01:21;;;;;;;8.32;3.40;;;;;;;10.22;100.00;93528.44;2126993;27;20499;-69
2022/08/08 01:02:53;;;;;;;3.58;3.28;;;;;;;10.14;100.00;93520.91;2126952;27;20037;-72
2022/08/08 01:04:21;;;;;;;4.60;3.70;;;;;;;10.07;100.00;93522.53;2126704;27;20121;-70
2022/08/08 01:05:52;;;;;;;3.80;3.28;;;;;;;10.16;100.00;93521.28;2128315;27;20063;-71
2022/08/08 01:07:11;;;;;;;7.28;3.70;;;;;;;10.16;100.00;93519.38;2126879;27;20151;-73
2022/08/08 01:08:38;;;;;;;3.88;3.33;;;;;;;10.12;100.00;93517.91;2126935;27;20030;-70
2022/08/08 01:09:58;;;;;;;3.65;3.35;;;;;;;10.01;100.00;93516.13;2126303;27;20038;-70
2022/08/08 01:11:01;;;;;;;3.85;3.50;;;;;;;9.91;100.00;93521.59;2123378;27;20038;-70
2022/08/08 01:12:21;;;;;;;3.97;3.25;;;;;;;9.88;100.00;93525.06;2132148;27;20410;-72
2022/08/08 01:13:37;;;;;;;3.38;3.08;;;;;;;9.97;100.00;93522.69;2126860;27;20106;-73
2022/08/08 01:15:16;;;;;;;3.72;3.20;;;;;;;9.94;100.00;93526.91;2126473;27;20035;-72
2022/08/08 01:16:45;;;;;;;5.97;3.20;;;;;;;9.92;100.00;93521.22;2123646;27;20035;-70
2022/08/08 01:18:11;;;;;;;3.70;3.33;;;;;;;9.93;100.00;93528.06;2126946;27;20050;-71
2022/08/08 01:19:24;;;;;;;4.15;3.28;;;;;;;9.98;100.00;93526.84;2126708;27;20601;-70
2022/08/08 01:20:43;;;;;;;4.10;3.70;;;;;;;9.90;100.00;93526.19;2126698;27;20053;-70
2022/08/08 01:21:59;;;;;;;3.78;3.47;;;;;;;9.91;100.00;93527.69;2130074;27;20026;-71
2022/08/08 01:23:02;;;;;;;4.65;3.40;;;;;;;9.87;100.00;93532.31;2128189;27;20074;-70
2022/08/08 01:24:33;;;;;;;3.53;3.22;;;;;;;9.71;100.00;93522.22;2126879;27;20449;-70
2022/08/08 01:25:46;;;;;;;4.30;3.60;;;;;;;9.63;100.00;93528.81;2126814;27;20034;-70
2022/08/08 01:26:54;;;;;;;6.57;3.30;;;;;;;9.74;100.00;93523.31;2127563;27;20109;-70
2022/08/08 01:28:23;;;;;;;3.75;3.45;;;;;;;9.77;100.00;93520.63;2126761;27;20421;-70
2022/08/08 01:29:45;;;;;;;3.65;3.20;;;;;;;9.78;100.00;93518.69;2126749;27;20444;-72
2022/08/08 01:30:51;;;;;;;3.30;3.00;;;;;;;9.79;100.00;93522.91;2126641;27;20027;-70
2022/08/08 01:32:20;;;;;;;3.40;3.10;;;;;;;9.80;100.00;93525.16;2122572;27;20594;-71
2022/08/08 01:33:57;;;;;;;3.22;3.00;;;;;;;9.64;100.00;93521.53;2126682;27;20042;-71
2022/08/08 01:35:34;;;;;;;3.40;3.10;;;;;;;9.70;100.00;93523.38;2126588;27;20034;-69
2022/08/08 01:36:53;;;;;;;4.55;3.28;;;;;;;9.74;100.00;93526.75;2126501;27;20045;-70
2022/08/08 01:38:29;;;;;;;4.75;3.13;;;;;;;9.73;100.00;93521.81;2128550;27;20026;-72
2022/08/08 01:39:48;;;;;;;4.95;3.30;;;;;;;9.77;100.00;93525.19;2126690;27;20688;-70
2022/08/08 01:41:01;;;;;;;2.95;2.70;;;;;;;9.74;100.00;93523.31;2126644;27;20018;-71
2022/08/08 01:42:21;;;;;;;3.38;3.10;;;;;;;9.68;100.00;93524.94;2117435;27;20037;-71
2022/08/08 01:43:54;;;;;;;2.75;2.55;;;;;;;9.57;100.00;93525.06;2126706;27;20029;-70
2022/08/08 01:45:32;;;;;;;3.80;3.20;;;;;;;9.58;100.00;93524.66;2116641;27;20087;-72
2022/08/08 01:46:41;;;;;;;4.32;2.60;;;;;;;9.56;100.00;93518.19;2126719;27;20028;-70
2022/08/08 01:47:49;;;;;;;3.30;3.03;;;;;;;9.52;100.00;93520.91;2127100;27;20029;-71
2022/08/08 01:49:07;;;;;;;3.30;3.00;;;;;;;9.46;100.00;93525.16;2128993;27;20038;-70
2022/08/08 01:50:42;;;;;;;3.13;2.92;;;;;;;9.42;100.00;93521.78;2126351;27;20049;-70
2022/08/08 01:52:03;;;;;;;3.30;3.00;;;;;;;9.32;100.00;93514.66;2126641;27;20023;-70
2022/08/08 01:53:19;;;;;;;3.80;3.22;;;;;;;9.43;100.00;93514.53;2126506;27;20039;-70
2022/08/08 01:54:23;;;;;;;4.25;2.80;;;;;;;9.48;100.00;93516.75;2130122;27;20030;-70
2022/08/08 01:55:59;;;;;;;2.95;2.72;;;;;;;9.46;100.00;93519.84;2126378;27;20031;-70
2022/08/08 01:57:12;;;;;;;7.88;3.10;;;;;;;9.46;100.00;93517.16;2126505;27;20113;-70
2022/08/08 01:58:32;;;;;;;3.45;3.15;;;;;;;9.46;100.00;93519.84;2126443;27;20030;-69
2022/08/08 01:59:45;;;;;;;5.10;3.17;;;;;;;9.37;100.00;93519.56;2133042;27;20027;-71
2022/08/08 02:00:55;;;;;;;3.33;2.67;;;;;;;9.42;100.00;93518.34;2126436;27;20082;-70
2022/08/08 02:02:21;;;;;;;4.78;3.10;;;;;;;9.36;100.00;93525.28;2117391;27;20031;-72
2022/08/08 02:03:30;;;;;;;6.07;3.17;;;;;;;9.30;100.00;93509.69;2121244;27;20041;-70
2022/08/08 02:04:41;;;;;;;4.23;3.10;;;;;;;9.34;100.00;93526.44;2129236;27;20044;-71
2022/08/08 02:06:11;;;;;;;2.78;2.58;;;;;;;9.26;100.00;93526.91;2126081;27;20444;-70
2022/08/08 02:07:49;;;;;;;3.28;3.08;;;;;;;9.23;100.00;93522.38;2126635;27;20491;-71
2022/08/08 02:09:17;;;;;;;3.22;2.92;;;;;;;9.27;100.00;93518.53;2118923;27;20037;-71
2022/08/08 02:10:59;;;;;;;3.13;2.83;;;;;;;9.23;100.00;93511.72;2124171;27;20129;-71
2022/08/08 02:12:09;;;;;;;3.80;3.00;;;;;;;9.24;100.00;93523.88;2087403;28;20049;-70
2022/08/08 02:14:52;;;;;;;;;;;;;;;9.32;100.00;93510.06;2145122;27;20542;-69
2022/08/08 02:16:25;;;;;;;3.08;2.88;;;;;;;9.22;100.00;93504.84;2136158;27;19942;-71
2022/08/08 02:17:57;;;;;;;5.38;2.85;;;;;;;9.23;100.00;93514.38;2133991;27;20031;-69
2022/08/08 02:19:10;;;;;;;3.50;3.20;;;;;;;9.20;100.00;93507.16;2133868;27;20031;-68
2022/08/08 02:20:31;;;;;;;6.10;2.97;;;;;;;9.18;100.00;93514.81;2133637;27;20031;-69
2022/08/08 02:23:19;;;;;;;5.07;2.75;;;;;;;9.12;100.00;93514.47;2133860;27;20102;-68
2022/08/08 02:24:27;;;;;;;2.90;2.70;;;;;;;9.00;100.00;93513.06;2133845;27;20039;-68
2022/08/08 02:25:47;;;;;;;3.13;2.92;;;;;;;8.95;100.00;93513.47;2135983;27;20045;-68
2022/08/08 02:27:09;;;;;;;4.68;3.33;;;;;;;8.96;100.00;93515.00;2124658;27;20026;-69
2022/08/08 02:28:18;;;;;;;3.55;3.25;;;;;;;8.95;100.00;93508.16;2127876;27;20034;-68
2022/08/08 02:29:33;;;;;;;4.13;3.15;;;;;;;8.92;100.00;93508.19;2133818;27;20038;-68
2022/08/08 02:31:05;;;;;;;6.45;3.20;;;;;;;8.95;100.00;93516.13;2136843;27;20031;-68
2022/08/08 02:32:36;;;;;;;5.53;3.00;;;;;;;8.93;100.00;93520.38;2133767;27;20134;-70
2022/08/08 02:34:09;;;;;;;3.38;3.03;;;;;;;8.98;100.00;93511.94;2133847;27;20453;-70
2022/08/08 02:35:41;;;;;;;4.05;3.13;;;;;;;9.12;100.00;93506.47;2133600;27;20027;-70
2022/08/08 02:36:54;;;;;;;4.63;2.97;;;;;;;8.92;100.00;93505.53;2129824;27;20031;-68
2022/08/08 02:38:07;;;;;;;3.85;3.20;;;;;;;8.94;100.00;93514.63;2133716;27;20030;-69
2022/08/08 02:39:23;;;;;;;3.67;3.38;;;;;;;8.89;100.00;93512.41;2133572;27;20417;-68
2022/08/08 02:40:42;;;;;;;3.20;3.00;;;;;;;8.98;100.00;93509.28;2133603;27;20038;-68
2022/08/08 02:41:55;;;;;;;3.25;2.95;;;;;;;8.92;100.00;93508.94;2133729;27;20022;-70
2022/08/08 02:43:19;;;;;;;5.50;3.33;;;;;;;8.94;100.00;93508.53;2133690;27;20071;-68
2022/08/08 02:44:24;;;;;;;3.45;3.15;;;;;;;8.99;100.00;93508.13;2133712;27;20030;-68
2022/08/08 02:45:43;;;;;;;4.80;2.92;;;;;;;8.97;100.00;93513.84;2133660;27;20046;-68
2022/08/08 02:47:04;;;;;;;3.38;2.92;;;;;;;8.84;100.00;93510.16;2136858;27;20037;-68
2022/08/08 02:48:14;;;;;;;3.40;3.10;;;;;;;8.96;100.00;93508.94;2119132;27;20055;-68
2022/08/08 02:49:52;;;;;;;3.42;3.13;;;;;;;8.87;100.00;93503.28;2133685;27;20034;-68
2022/08/08 02:51:34;;;;;;;3.90;3.03;;;;;;;8.93;100.00;93510.47;2133503;27;20026;-68
2022/08/08 02:52:58;;;;;;;3.40;3.10;;;;;;;8.86;100.00;93513.19;2133626;27;20467;-70
2022/08/08 02:54:20;;;;;;;3.50;3.20;;;;;;;8.81;100.00;93516.28;2133428;27;20030;-70
2022/08/08 02:55:31;;;;;;;3.70;3.10;;;;;;;8.80;100.00;93512.09;2133402;27;20030;-69
2022/08/08 02:56:47;;;;;;;4.07;3.05;;;;;;;8.77;100.00;93510.22;2136171;27;20057;-69
2022/08/08 02:58:09;;;;;;;3.30;2.97;;;;;;;8.85;100.00;93506.34;2133557;27;20379;-69
2022/08/08 02:59:32;;;;;;;3.30;3.00;;;;;;;8.90;100.00;93516.56;2133641;27;20039;-69
2022/08/08 03:01:10;;;;;;;3.50;2.55;;;;;;;8.84;100.00;93510.16;2133465;27;20023;-68
2022/08/08 03:02:23;;;;;;;3.72;2.83;;;;;;;8.72;100.00;93508.72;2133213;27;21974;-69
2022/08/08 03:03:42;;;;;;;3.30;2.97;;;;;;;8.69;100.00;93511.41;2133575;27;20031;-68
2022/08/08 03:05:07;;;;;;;2.90;2.60;;;;;;;8.70;100.00;93512.97;2133455;27;20027;-69
2022/08/08 03:06:39;;;;;;;3.10;2.90;;;;;;;8.61;100.00;93504.66;2133544;27;20074;-69
2022/08/08 03:08:25;;;;;;;3.85;2.42;;;;;;;8.75;100.00;93499.97;2134008;27;20023;-71
2022/08/08 03:09:47;;;;;;;3.28;2.50;;;;;;;8.69;100.00;93511.41;2108838;27;20067;-69
2022/08/08 03:11:25;;;;;;;3.03;2.72;;;;;;;8.64;100.00;93507.28;2133455;27;20037;-68
2022/08/08 03:13:03;;;;;;;3.75;2.70;;;;;;;8.68;100.00;93509.91;2133341;27;20019;-71
2022/08/08 03:14:13;;;;;;;2.78;2.58;;;;;;;8.70;100.00;93516.38;2132972;27;20041;-71
2022/08/08 03:15:59;;;;;;;3.45;3.15;;;;;;;8.61;100.00;93507.31;2133436;27;20034;-71
2022/08/08 03:17:12;;;;;;;3.10;2.50;;;;;;;8.62;100.00;93514.16;2130386;27;20061;-69
2022/08/08 03:18:43;;;;;;;4.05;2.60;;;;;;;8.59;100.00;93521.03;2124347;27;20053;-68
2022/08/08 03:20:05;;;;;;;2.95;2.75;;;;;;;8.74;100.00;93517.09;2116929;27;20035;-71
2022/08/08 03:21:06;;;;;;;3.25;2.92;;;;;;;8.69;100.00;93524.75;2127903;27;20030;-68
2022/08/08 03:22:07;;;;;;;2.88;2.67;;;;;;;8.60;100.00;93521.78;2133354;27;20097;-69
2022/08/08 03:23:08;;;;;;;3.22;2.92;;;;;;;8.48;100.00;93520.34;2133345;27;20477;-69
2022/08/08 03:24:09;;;;;;;3.20;2.50;;;;;;;8.52;100.00;93519.19;2137575;27;20034;-70
2022/08/08 03:25:12;;;;;;;3.47;2.70;;;;;;;8.52;100.00;93527.19;2133322;27;20404;-70
2022/08/08 03:26:18;;;;;;;4.03;3.00;;;;;;;8.48;100.00;93523.03;2127395;27;20406;-71
2022/08/08 03:27:28;;;;;;;3.20;2.90;;;;;;;8.50;100.00;93520.72;2127596;27;20114;-70
2022/08/08 03:28:31;;;;;;;4.25;2.92;;;;;;;8.27;100.00;93529.22;2128472;27;20826;-69
2022/08/08 03:29:37;;;;;;;3.20;2.83;;;;;;;8.27;100.00;93526.56;2128641;27;20473;-67
2022/08/08 03:30:43;;;;;;;3.33;2.67;;;;;;;8.26;100.00;93525.78;2127507;27;20135;-69
2022/08/08 03:33:19;;;;;;;3.15;2.85;;;;;;;8.33;100.00;93532.97;2127594;27;20118;-68
2022/08/08 03:34:20;;;;;;;2.90;2.60;;;;;;;8.44;100.00;93530.28;2128031;27;20057;-69
2022/08/08 03:35:22;;;;;;;3.55;3.10;;;;;;;8.44;100.00;93538.28;2127536;27;20082;-68
2022/08/08 03:36:23;;;;;;;3.17;2.92;;;;;;;8.34;100.00;93531.84;2127531;27;20337;-70
2022/08/08 03:37:24;;;;;;;3.13;2.85;;;;;;;8.43;100.00;93534.84;2127449;27;20453;-69
2022/08/08 03:38:25;;;;;;;3.50;3.20;;;;;;;8.43;100.00;93529.53;2127555;27;20058;-69
2022/08/08 03:39:26;;;;;;;3.38;3.00;;;;;;;8.41;100.00;93536.38;2129561;27;20083;-68
2022/08/08 03:40:27;;;;;;;3.47;3.17;;;;;;;8.33;100.00;93541.72;2127501;27;20074;-70
2022/08/08 03:41:33;;;;;;;3.15;2.85;;;;;;;8.24;100.00;93537.97;2127461;27;20027;-69
2022/08/08 03:42:37;;;;;;;3.92;3.47;;;;;;;8.28;100.00;93536.06;2123946;27;20035;-68
2022/08/08 03:43:38;;;;;;;3.53;2.78;;;;;;;8.32;100.00;93539.44;2127433;27;20030;-69
2022/08/08 03:44:38;;;;;;;4.43;3.15;;;;;;;8.37;100.00;93538.31;2128711;27;20027;-69
2022/08/08 03:45:40;;;;;;;2.90;2.70;;;;;;;8.23;100.00;93542.53;2127419;27;20018;-68
2022/08/08 03:46:49;;;;;;;3.15;2.90;;;;;;;8.24;100.00;93537.97;2127263;27;20031;-69
2022/08/08 03:47:55;;;;;;;3.03;2.70;;;;;;;8.22;100.00;93533.06;2127312;27;20031;-71
2022/08/08 03:48:58;;;;;;;2.70;2.50;;;;;;;8.30;100.00;93545.19;2127459;27;20027;-72
2022/08/08 03:49:59;;;;;;;4.80;2.58;;;;;;;8.33;100.00;93540.97;2127116;27;20660;-69
2022/08/08 03:51:00;;;;;;;3.30;3.03;;;;;;;8.36;100.00;93536.78;2131757;27;20050;-69
2022/08/08 03:52:01;;;;;;;9.65;3.08;;;;;;;8.27;100.00;93543.28;2118147;27;20016;-71
2022/08/08 03:53:07;;;;;;;3.08;2.78;;;;;;;8.26;100.00;93549.00;2115058;27;20063;-69
2022/08/08 03:54:09;;;;;;;5.03;3.00;;;;;;;8.26;100.00;93544.44;2127394;27;20035;-68
2022/08/08 03:55:13;;;;;;;3.50;3.13;;;;;;;8.19;100.00;93541.06;2127068;27;20031;-70
2022/08/08 03:56:14;;;;;;;3.10;2.90;;;;;;;8.25;100.00;93542.16;2126799;27;20034;-68
2022/08/08 03:57:17;;;;;;;3.33;2.90;;;;;;;8.23;100.00;93547.13;2127361;27;20048;-69
2022/08/08 03:58:21;;;;;;;2.90;2.70;;;;;;;8.28;100.00;93546.69;2118144;27;20559;-71
2022/08/08 03:59:29;;;;;;;5.30;2.95;;;;;;;8.23;100.00;93544.47;2118785;27;20027;-70
2022/08/08 04:00:30;;;;;;;3.33;2.88;;;;;;;8.22;100.00;93546.38;2126025;27;20034;-68
2022/08/08 04:01:38;;;;;;;3.03;2.83;;;;;;;8.14;100.00;93547.53;2118887;27;20023;-69
2022/08/08 04:02:39;;;;;;;3.97;2.92;;;;;;;8.17;100.00;93546.03;2119633;27;20027;-68
2022/08/08 04:03:44;;;;;;;4.72;2.85;;;;;;;8.37;100.00;93538.31;2127513;27;20049;-70
2022/08/08 04:04:45;;;;;;;3.72;2.83;;;;;;;8.17;100.00;93551.34;2127301;27;20022;-69
2022/08/08 04:05:47;;;;;;;4.25;2.90;;;;;;;8.19;100.00;93557.03;2128086;27;20030;-68
2022/08/08 04:06:56;;;;;;;4.93;2.88;;;;;;;8.17;100.00;93546.78;2127450;27;20033;-71
2022/08/08 04:07:58;;;;;;;2.72;2.53;;;;;;;8.12;100.00;93546.41;2127251;27;20035;-69
2022/08/08 04:09:06;;;;;;;7.53;2.80;;;;;;;7.98;100.00;93552.56;2127172;27;21339;-71
2022/08/08 04:10:07;;;;;;;4.22;2.60;;;;;;;8.10;100.00;93554.03;2127118;27;20031;-69
2022/08/08 04:11:08;;;;;;;2.50;2.30;;;;;;;8.13;100.00;93551.38;2128500;27;20019;-70
2022/08/08 04:12:09;;;;;;;4.43;2.95;;;;;;;8.18;100.00;93553.63;2127192;27;20418;-69
2022/08/08 04:13:10;;;;;;;2.60;2.40;;;;;;;8.15;100.00;93550.97;2127249;27;20035;-69
2022/08/08 04:14:12;;;;;;;2.92;2.60;;;;;;;8.14;100.00;93558.19;2122921;27;20058;-68
2022/08/08 04:15:12;;;;;;;3.10;2.80;;;;;;;8.08;100.00;93555.19;2127240;27;20034;-69
2022/08/08 04:16:13;;;;;;;2.88;2.58;;;;;;;8.00;100.00;93552.94;2126950;27;20070;-70
2022/08/08 04:17:14;;;;;;;6.18;3.00;;;;;;;8.04;100.00;93557.13;2131478;27;20083;-71
2022/08/08 04:18:15;;;;;;;5.38;2.83;;;;;;;8.08;100.00;93555.19;2127196;27;20118;-70
2022/08/08 04:19:16;;;;;;;3.15;2.85;;;;;;;8.25;100.00;93558.13;2127025;27;20111;-69
2022/08/08 04:20:18;;;;;;;4.25;2.83;;;;;;;8.20;100.00;93558.53;2127241;27;20031;-69
2022/08/08 04:21:19;;;;;;;4.35;3.00;;;;;;;8.16;100.00;93561.22;2126927;27;20035;-69
2022/08/08 04:22:21;;;;;;;3.28;2.20;;;;;;;8.04;100.00;93559.03;2129597;27;20089;-72
2022/08/08 04:23:21;;;;;;;2.80;2.60;;;;;;;8.10;100.00;93562.03;2127138;27;20423;-70
2022/08/08 04:24:22;;;;;;;4.50;2.30;;;;;;;8.13;100.00;93558.59;2127127;27;20022;-69
2022/08/08 04:25:23;;;;;;;2.50;2.30;;;;;;;8.15;100.00;93566.94;2117908;27;20034;-69
2022/08/08 04:26:24;;;;;;;6.10;2.35;;;;;;;8.07;100.00;93566.97;2111638;28;20473;-69
2022/08/08 04:27:26;;;;;;;3.05;2.60;;;;;;;7.99;100.00;93564.72;2115300;27;20024;-69
2022/08/08 04:28:27;;;;;;;4.50;2.70;;;;;;;7.99;100.00;93562.84;2129600;27;20055;-69
2022/08/08 04:29:28;;;;;;;2.78;2.50;;;;;;;7.98;100.00;93565.88;2117850;27;20028;-70
2022/08/08 04:30:29;;;;;;;4.18;2.40;;;;;;;8.12;100.00;93563.16;2118019;27;20038;-69
2022/08/08 04:31:30;;;;;;;2.95;2.53;;;;;;;8.15;100.00;93566.94;2127012;27;20168;-69
2022/08/08 04:32:31;;;;;;;3.28;2.33;;;;;;;8.16;100.00;93566.53;2126618;27;20042;-71
2022/08/08 04:33:34;;;;;;;2.45;2.25;;;;;;;8.21;100.00;93568.81;2128152;27;20027;-69
2022/08/08 04:34:35;;;;;;;2.58;2.38;;;;;;;8.16;100.00;93569.19;2127056;27;20027;-69
2022/08/08 04:35:35;;;;;;;3.88;2.47;;;;;;;8.24;100.00;93564.59;2127030;27;20172;-70
2022/08/08 04:36:36;;;;;;;2.45;2.25;;;;;;;8.27;100.00;93561.94;2126939;27;20019;-68
2022/08/08 04:37:37;;;;;;;2.38;2.17;;;;;;;8.25;100.00;93566.13;2126043;27;20030;-70
2022/08/08 04:38:38;;;;;;;5.18;2.33;;;;;;;8.30;100.00;93565.72;2130622;27;20086;-68
2022/08/08 04:39:39;;;;;;;4.88;2.30;;;;;;;8.27;100.00;93566.50;2127042;27;20026;-72
2022/08/08 04:40:40;;;;;;;2.58;2.10;;;;;;;8.26;100.00;93568.41;2126986;27;20026;-68
2022/08/08 04:41:41;;;;;;;6.85;2.35;;;;;;;8.33;100.00;93570.25;2126876;27;20464;-69
2022/08/08 04:42:42;;;;;;;3.03;2.15;;;;;;;8.32;100.00;93569.50;2127006;27;20018;-69
2022/08/08 04:43:43;;;;;;;2.63;2.42;;;;;;;8.36;100.00;93563.41;2127316;27;20368;-72
2022/08/08 04:44:44;;;;;;;3.35;2.47;;;;;;;8.33;100.00;93564.94;2127000;27;20027;-68
2022/08/08 04:45:45;;;;;;;2.58;2.38;;;;;;;8.32;100.00;93576.75;2126992;27;20023;-68
2022/08/08 04:46:46;;;;;;;2.63;2.35;;;;;;;8.40;100.00;93572.16;2126884;27;20078;-69
2022/08/08 04:47:47;;;;;;;2.40;2.20;;;;;;;8.30;100.00;93573.72;2127044;27;20035;-70
2022/08/08 04:48:48;;;;;;;3.70;2.38;;;;;;;8.35;100.00;93578.63;2129366;27;20034;-71
2022/08/08 04:49:49;;;;;;;2.63;2.20;;;;;;;8.30;100.00;93568.38;2126750;27;20981;-69
2022/08/08 04:50:50;;;;;;;2.60;2.40;;;;;;;8.39;100.00;93579.41;2126912;27;20030;-69
2022/08/08 04:51:51;;;;;;;4.90;2.55;;;;;;;8.47;100.00;93574.75;2126906;27;20042;-69
2022/08/08 04:52:52;;;;;;;4.80;2.22;;;;;;;8.51;100.00;93572.84;2126932;27;20357;-71
2022/08/08 04:53:53;;;;;;;4.07;2.30;;;;;;;8.49;100.00;93564.50;2127368;27;20095;-69
2022/08/08 04:54:54;;;;;;;3.33;2.25;;;;;;;8.50;100.00;93579.31;2127005;27;20513;-69
2022/08/08 04:55:55;;;;;;;2.72;2.10;;;;;;;8.48;100.00;93570.97;2126825;27;20026;-69
2022/08/08 04:56:56;;;;;;;3.47;2.50;;;;;;;8.52;100.00;93577.03;2126871;27;20031;-68
2022/08/08 04:57:57;;;;;;;4.05;2.25;;;;;;;8.49;100.00;93578.56;2126946;27;20027;-70
2022/08/08 04:58:58;;;;;;;3.92;2.20;;;;;;;8.60;100.00;93583.06;2126351;27;20039;-71
2022/08/08 05:00:00;;;;;;;2.30;2.08;;;;;;;8.61;100.00;93584.59;2128301;27;20030;-69
2022/08/08 05:01:01;;;;;;;2.47;2.25;;;;;;;8.64;100.00;93579.22;2117586;27;20015;-71
2022/08/08 05:02:02;;;;;;;2.60;2.40;;;;;;;8.64;100.00;93587.22;2117865;27;20504;-69
2022/08/08 05:03:03;;;;;;;2.60;2.40;;;;;;;8.63;100.00;93583.03;2127417;27;20125;-69
2022/08/08 05:04:04;;;;;;;3.28;2.40;;;;;;;8.66;100.00;93587.59;2125823;27;20038;-69
2022/08/08 05:05:05;;;;;;;2.35;2.15;;;;;;;8.77;100.00;93577.59;2130590;27;20034;-69
2022/08/08 05:06:06;;;;;;;3.05;2.25;;;;;;;8.73;100.00;93587.53;2126992;27;20536;-69
2022/08/08 05:07:08;;;;;;;2.60;2.40;;;;;;;8.73;100.00;93581.44;2126884;27;20027;-69
2022/08/08 05:08:10;;;;;;;2.60;2.40;;;;;;;8.81;100.00;93575.66;2126825;27;20083;-68
2022/08/08 05:09:11;;;;;;;3.75;2.28;;;;;;;8.79;100.00;93580.66;2117170;27;20434;-69
2022/08/08 05:10:12;;;;;;;2.50;2.30;;;;;;;8.87;100.00;93584.03;2113068;28;20141;-69
2022/08/08 05:11:13;;;;;;;3.13;2.60;;;;;;;8.92;100.00;93582.84;2117264;27;20141;-71
2022/08/08 05:12:14;;;;;;;3.05;2.20;;;;;;;8.96;100.00;93588.91;2128836;27;20105;-69
2022/08/08 05:13:15;;;;;;;3.20;2.10;;;;;;;8.91;100.00;93584.75;2128023;27;20019;-67
2022/08/08 05:14:16;;;;;;;4.07;2.67;;;;;;;8.97;100.00;93579.75;2117307;27;20047;-68
2022/08/08 05:15:17;;;;;;;2.83;2.30;;;;;;;9.03;100.00;93578.16;2121414;27;20035;-68
2022/08/08 05:16:18;;;;;;;9.02;2.80;;;;;;;9.05;100.00;93578.53;2126737;27;20126;-70
2022/08/08 05:17:19;;;;;;;2.83;2.42;;;;;;;9.07;100.00;93584.97;2126690;27;20096;-68
2022/08/08 05:18:20;;;;;;;3.00;2.50;;;;;;;9.12;100.00;93583.03;2126728;27;20052;-71
2022/08/08 05:19:21;;;;;;;5.20;2.40;;;;;;;9.15;100.00;93584.94;2129303;27;20030;-71
2022/08/08 05:20:22;;;;;;;7.50;2.70;;;;;;;9.23;100.00;93581.81;2127042;27;20066;-72
2022/08/08 05:21:23;;;;;;;5.72;2.58;;;;;;;9.24;100.00;93577.97;2126745;27;20152;-72
2022/08/08 05:22:26;;;;;;;2.97;2.45;;;;;;;9.30;100.00;93576.38;2126760;27;20026;-71
2022/08/08 05:23:27;;;;;;;4.25;2.63;;;;;;;9.32;100.00;93576.00;2126672;27;20380;-68
2022/08/08 05:24:28;;;;;;;3.25;2.30;;;;;;;9.32;100.00;93579.44;2117471;27;20109;-71
2022/08/08 05:25:29;;;;;;;3.72;2.85;;;;;;;9.42;100.00;93577.81;2119690;27;20027;-73
2022/08/08 05:26:30;;;;;;;6.47;2.55;;;;;;;9.46;100.00;93575.13;2126632;27;20115;-68
2022/08/08 05:27:31;;;;;;;5.30;2.40;;;;;;;9.50;100.00;93579.25;2126573;27;20025;-71
2022/08/08 05:28:32;;;;;;;4.60;2.50;;;;;;;9.53;100.00;93583.81;2126470;27;20070;-71
2022/08/08 05:29:34;;;;;;;2.60;2.40;;;;;;;9.57;100.00;93579.19;2126645;27;20022;-70
2022/08/08 05:30:37;;;;;;;4.25;2.25;;;;;;;9.63;100.00;93582.19;2125978;27;20101;-68
2022/08/08 05:31:39;;;;;;;3.38;2.47;;;;;;;9.66;100.00;93580.63;2126759;27;20066;-70
2022/08/08 05:32:39;;;;;;;2.97;2.22;;;;;;;9.70;100.00;93582.13;2126710;27;20475;-70
2022/08/08 05:33:41;;;;;;;3.85;2.70;;;;;;;9.74;100.00;93576.72;2126562;27;20050;-68
2022/08/08 05:34:47;;;;;;;2.30;2.08;;;;;;;9.78;100.00;93583.53;2126434;27;20019;-70
2022/08/08 05:35:53;;;;;;;2.60;2.40;;;;;;;9.79;100.00;93581.63;2126027;27;20035;-71
2022/08/08 05:36:55;;;;;;;2.33;2.08;;;;;;;9.86;100.00;93581.53;2130864;27;20103;-67
2022/08/08 05:38:05;;;;;;;2.72;2.35;;;;;;;9.94;100.00;93585.66;2126450;27;20485;-69
2022/08/08 05:39:08;;;;;;;2.85;2.50;;;;;;;9.91;100.00;93586.44;2126642;27;20072;-68
2022/08/08 05:40:11;;;;;;;2.72;2.30;;;;;;;10.00;100.00;93585.94;2126580;27;20467;-70
2022/08/08 05:41:16;;;;;;;3.50;2.35;;;;;;;10.07;100.00;93583.97;2126376;27;20114;-69
2022/08/08 05:42:18;;;;;;;3.58;2.50;;;;;;;10.11;100.00;93583.91;2128759;27;20538;-68
2022/08/08 05:43:30;;;;;;;2.60;2.40;;;;;;;10.17;100.00;93582.31;2126520;27;20166;-68